Terminal Aerodrome Forecast
Issued by NWS

Home | Current Version | Previous Version | Text Only | Print | Product List | Glossary On
Versions: 1 2 3 4 5 6 7 8 9 10 11 12 13 14
012
FTUS45 KRIW 290531
TAFBPI
TAF
KBPI 290531Z 2906/3006 35007KT P6SM FEW100
     FM291800 30015G25KT P6SM BKN090
     FM300100 35014G20KT P6SM SCT050 BKN080
     FM300400 35008KT P6SM SCT080=

USA.gov is the U.S. government's official web portal to all federal, state and local government web resources and services.